createdAt,value
2023-03-06T00:01:32.010Z,45.84
2023-03-06T00:04:01.758Z,45.60
2023-03-06T00:06:31.772Z,45.31
2023-03-06T00:09:01.454Z,45.39
2023-03-06T00:11:31.081Z,45.42
2023-03-06T00:14:00.952Z,45.24
2023-03-06T00:16:30.610Z,45.18
2023-03-06T00:19:00.241Z,44.95
2023-03-06T00:21:29.997Z,44.78
2023-03-06T00:23:59.676Z,44.53
2023-03-06T00:26:29.353Z,44.36
2023-03-06T00:28:59.400Z,44.16
2023-03-06T00:31:29.161Z,44.32
2023-03-06T00:33:58.762Z,44.35
2023-03-06T00:36:28.500Z,44.05
2023-03-06T00:38:58.129Z,43.95
2023-03-06T00:41:28.698Z,43.75
2023-03-06T00:43:58.394Z,43.51
2023-03-06T00:46:28.100Z,43.60
2023-03-06T00:48:57.836Z,43.31
2023-03-06T00:51:27.501Z,43.24
2023-03-06T00:53:57.127Z,43.16
2023-03-06T00:56:27.289Z,43.02
2023-03-06T00:58:56.920Z,42.84
2023-03-06T01:01:26.549Z,42.49
2023-03-06T01:03:56.415Z,42.77
2023-03-06T01:06:26.484Z,42.50
2023-03-06T01:08:56.136Z,42.18
2023-03-06T01:11:26.109Z,42.27
2023-03-06T01:13:56.031Z,42.42
2023-03-06T01:16:26.105Z,42.11
2023-03-06T01:18:55.754Z,41.43
2023-03-06T01:21:25.825Z,41.44
2023-03-06T01:23:55.453Z,41.76
2023-03-06T01:26:25.181Z,41.41
2023-03-06T01:28:54.750Z,41.44
2023-03-06T01:31:24.421Z,41.44
2023-03-06T01:33:54.483Z,41.30
2023-03-06T01:36:24.228Z,41.04
2023-03-06T01:38:53.819Z,40.73
2023-03-06T01:41:23.527Z,40.81
2023-03-06T01:43:53.543Z,40.74
2023-03-06T01:46:33.763Z,40.51
2023-03-06T01:49:27.338Z,40.22
2023-03-06T01:52:05.610Z,40.24
2023-03-06T01:54:57.444Z,40.18
2023-03-06T01:57:40.597Z,39.77
2023-03-06T02:00:15.819Z,39.67
2023-03-06T02:02:51.947Z,39.87
2023-03-06T02:05:22.190Z,39.96
2023-03-06T02:07:52.949Z,39.77
2023-03-06T02:10:23.525Z,39.59
2023-03-06T02:12:54.101Z,39.64
2023-03-06T02:15:27.889Z,39.72
2023-03-06T02:17:57.974Z,39.55
2023-03-06T02:20:41.356Z,39.62
2023-03-06T02:23:33.963Z,39.27
2023-03-06T02:26:04.975Z,39.48
2023-03-06T02:28:34.549Z,39.18
2023-03-06T02:31:04.394Z,39.31
2023-03-06T02:33:34.259Z,39.39
2023-03-06T02:36:08.927Z,39.16
2023-03-06T02:38:52.419Z,38.91
2023-03-06T02:41:22.076Z,39.31
2023-03-06T02:43:54.092Z,38.95
2023-03-06T02:46:23.713Z,38.82
2023-03-06T02:48:53.335Z,38.69
2023-03-06T02:51:23.196Z,38.20
2023-03-06T02:53:52.976Z,38.43
2023-03-06T02:56:22.978Z,37.93
2023-03-06T02:58:53.620Z,37.94
2023-03-06T03:01:23.777Z,37.91
2023-03-06T03:03:53.466Z,37.87
2023-03-06T03:06:23.088Z,37.67
2023-03-06T03:08:52.714Z,37.85
2023-03-06T03:11:22.345Z,37.50
2023-03-06T03:13:51.931Z,37.27
2023-03-06T03:16:21.746Z,37.53
2023-03-06T03:18:52.590Z,37.65
2023-03-06T03:21:22.309Z,37.30
2023-03-06T03:23:51.957Z,37.43
2023-03-06T03:26:23.630Z,37.23
2023-03-06T03:28:53.240Z,37.54
2023-03-06T03:31:22.871Z,37.13
2023-03-06T03:33:52.634Z,36.91
2023-03-06T03:36:22.275Z,36.70
2023-03-06T03:38:51.900Z,36.63
2023-03-06T03:41:21.650Z,36.59
2023-03-06T03:43:51.273Z,36.58
2023-03-06T03:46:22.123Z,36.57
2023-03-06T03:48:51.699Z,36.28
2023-03-06T03:51:22.113Z,36.15
2023-03-06T03:53:51.994Z,36.15
2023-03-06T03:56:21.935Z,36.21
2023-03-06T03:58:51.492Z,35.86
2023-03-06T04:01:21.395Z,36.43
2023-03-06T04:03:50.958Z,36.10
2023-03-06T04:06:21.066Z,36.14
2023-03-06T04:08:50.677Z,36.22
2023-03-06T04:11:20.323Z,35.67
2023-03-06T04:13:49.938Z,35.50
2023-03-06T04:16:19.729Z,35.93
2023-03-06T04:18:49.385Z,35.62
2023-03-06T04:21:19.026Z,35.35
2023-03-06T04:23:48.658Z,35.37
2023-03-06T04:26:18.296Z,35.12
2023-03-06T04:28:47.898Z,35.78
2023-03-06T04:31:17.812Z,35.25
2023-03-06T04:33:47.340Z,34.96
2023-03-06T04:36:35.623Z,34.91
2023-03-06T04:39:05.527Z,35.38
2023-03-06T04:41:35.246Z,34.91
2023-03-06T04:44:05.110Z,35.24
2023-03-06T04:46:35.038Z,35.10
2023-03-06T04:49:05.756Z,35.05
2023-03-06T04:51:38.312Z,34.57
2023-03-06T04:54:08.089Z,34.80
2023-03-06T04:56:37.988Z,34.73
2023-03-06T04:59:07.592Z,34.70
2023-03-06T05:01:37.556Z,34.47
2023-03-06T05:04:07.438Z,34.05
2023-03-06T05:06:37.086Z,34.35
2023-03-06T05:09:06.715Z,34.33
2023-03-06T05:11:36.362Z,33.81
2023-03-06T05:14:06.027Z,33.93
2023-03-06T05:16:35.697Z,33.87
2023-03-06T05:19:05.378Z,34.03
2023-03-06T05:21:35.112Z,33.81
2023-03-06T05:24:04.664Z,33.86
2023-03-06T05:26:35.451Z,33.96
2023-03-06T05:29:05.001Z,33.77
2023-03-06T05:31:34.759Z,33.91
2023-03-06T05:34:04.381Z,33.80
2023-03-06T05:36:34.586Z,33.73
2023-03-06T05:39:04.151Z,33.45
2023-03-06T05:41:33.853Z,33.33
2023-03-06T05:44:03.876Z,32.94
2023-03-06T05:46:33.726Z,33.09
2023-03-06T05:49:03.355Z,33.05
2023-03-06T05:51:33.373Z,33.02
2023-03-06T05:54:03.013Z,32.74
2023-03-06T05:56:32.594Z,32.78
2023-03-06T05:59:02.433Z,32.82
2023-03-06T06:01:32.053Z,32.96
2023-03-06T06:04:01.664Z,32.62
2023-03-06T06:06:31.304Z,32.67
2023-03-06T06:09:00.927Z,32.59
2023-03-06T06:11:30.479Z,32.71
2023-03-06T06:14:00.244Z,32.78
2023-03-06T06:16:31.186Z,32.71
2023-03-06T06:19:00.824Z,33.03
2023-03-06T06:21:30.484Z,32.69
2023-03-06T06:24:00.143Z,32.59
2023-03-06T06:26:29.848Z,32.67
2023-03-06T06:29:00.357Z,32.58
2023-03-06T06:31:30.186Z,32.56
2023-03-06T06:33:59.976Z,32.71
2023-03-06T06:36:29.634Z,32.61
2023-03-06T06:38:59.392Z,32.77
2023-03-06T06:44:20.651Z,32.36
2023-03-06T06:49:41.236Z,32.32
2023-03-06T06:52:11.004Z,32.30
2023-03-06T06:54:40.694Z,32.25
2023-03-06T06:57:11.819Z,32.15
2023-03-06T06:59:41.485Z,32.10
2023-03-06T07:02:14.634Z,31.99
2023-03-06T07:05:00.235Z,31.83
2023-03-06T07:07:32.700Z,32.00
2023-03-06T07:10:02.282Z,31.92
2023-03-06T07:12:34.311Z,31.77
2023-03-06T07:15:04.039Z,31.91
2023-03-06T07:17:33.807Z,31.77
2023-03-06T07:20:03.397Z,31.67
2023-03-06T07:22:41.562Z,31.75
2023-03-06T07:25:20.229Z,31.69
2023-03-06T07:27:53.709Z,31.83
2023-03-06T07:30:27.463Z,31.59
2023-03-06T07:32:58.710Z,31.53
2023-03-06T07:35:28.499Z,31.71
2023-03-06T07:37:58.188Z,31.50
2023-03-06T07:40:27.976Z,31.54
2023-03-06T07:43:16.839Z,31.30
2023-03-06T07:45:48.711Z,31.42
2023-03-06T07:48:18.332Z,31.35
2023-03-06T07:50:47.901Z,31.46
2023-03-06T07:53:17.506Z,31.35
2023-03-06T07:55:47.166Z,31.33
2023-03-06T07:58:16.911Z,31.42
2023-03-06T08:00:46.546Z,31.42
2023-03-06T08:03:17.052Z,31.58
2023-03-06T08:05:47.047Z,31.27
2023-03-06T08:08:16.820Z,31.52
2023-03-06T08:10:50.709Z,31.44
2023-03-06T08:13:20.446Z,31.56
2023-03-06T08:15:51.049Z,31.30
2023-03-06T08:18:20.623Z,31.33
2023-03-06T08:20:50.202Z,31.47
2023-03-06T08:23:19.791Z,31.48
2023-03-06T08:25:56.911Z,31.51
2023-03-06T08:28:26.950Z,31.25
2023-03-06T08:30:57.749Z,31.37
2023-03-06T08:33:27.401Z,31.22
2023-03-06T08:35:57.033Z,31.50
2023-03-06T08:38:26.688Z,31.53
2023-03-06T08:40:56.261Z,31.60
2023-03-06T08:43:25.952Z,31.63
2023-03-06T08:46:00.250Z,31.67
2023-03-06T08:48:30.218Z,31.79
2023-03-06T08:50:59.991Z,31.86
2023-03-06T08:53:42.218Z,31.82
2023-03-06T08:56:25.065Z,31.76
2023-03-06T08:58:55.364Z,31.74
2023-03-06T09:01:28.055Z,32.16
2023-03-06T09:04:00.005Z,32.14
2023-03-06T09:06:33.818Z,32.15
2023-03-06T09:09:03.997Z,32.07
2023-03-06T09:11:34.221Z,32.13
2023-03-06T09:14:04.008Z,32.09
2023-03-06T09:16:34.216Z,32.11
2023-03-06T09:19:03.868Z,32.15
2023-03-06T09:21:33.564Z,32.18
2023-03-06T09:24:03.300Z,32.26
2023-03-06T09:26:44.970Z,32.68
2023-03-06T09:29:17.755Z,32.79
2023-03-06T09:31:47.968Z,32.51
2023-03-06T09:34:17.589Z,32.55
2023-03-06T09:36:56.411Z,32.80
2023-03-06T09:39:27.797Z,32.80
2023-03-06T09:42:01.437Z,32.99
2023-03-06T09:44:35.888Z,32.93
2023-03-06T09:47:11.793Z,32.64
2023-03-06T09:50:00.131Z,32.96
2023-03-06T09:52:40.118Z,32.71
2023-03-06T09:55:39.787Z,32.83
2023-03-06T09:58:20.206Z,32.91
2023-03-06T10:01:18.027Z,33.10
2023-03-06T10:04:11.728Z,32.90
2023-03-06T10:06:51.158Z,32.86
2023-03-06T10:09:55.392Z,33.06
2023-03-06T10:12:30.321Z,33.02
2023-03-06T10:15:17.132Z,32.94
2023-03-06T10:17:47.454Z,33.32
2023-03-06T10:20:23.086Z,33.08
2023-03-06T10:23:23.692Z,33.15
2023-03-06T10:26:05.350Z,33.22
2023-03-06T10:28:49.668Z,33.05
2023-03-06T10:31:28.164Z,33.03
2023-03-06T10:34:19.828Z,33.03
2023-03-06T10:36:49.455Z,33.14
2023-03-06T10:39:21.775Z,33.35
2023-03-06T10:41:52.598Z,33.26
2023-03-06T10:44:25.020Z,33.10
2023-03-06T10:46:56.143Z,33.12
2023-03-06T10:49:39.632Z,33.27
2023-03-06T10:52:21.264Z,33.42
2023-03-06T10:54:51.182Z,33.14
2023-03-06T10:57:32.610Z,33.28
2023-03-06T11:00:08.189Z,32.93
2023-03-06T11:02:42.397Z,32.96
2023-03-06T11:05:22.721Z,32.81
2023-03-06T11:07:57.705Z,33.13
2023-03-06T11:10:28.222Z,33.30
2023-03-06T11:13:23.483Z,32.75
2023-03-06T11:16:00.973Z,32.71
2023-03-06T11:18:44.313Z,32.74
2023-03-06T11:21:32.502Z,32.85
2023-03-06T11:24:20.389Z,32.68
2023-03-06T11:27:02.113Z,32.84
2023-03-06T11:29:46.636Z,32.73
2023-03-06T11:32:34.375Z,33.10
2023-03-06T11:35:12.016Z,32.62
2023-03-06T11:37:48.511Z,32.59
2023-03-06T11:40:28.999Z,32.84
2023-03-06T11:43:19.931Z,32.59
2023-03-06T11:46:16.828Z,32.54
2023-03-06T11:48:56.390Z,32.36
2023-03-06T11:51:35.260Z,32.44
2023-03-06T11:54:05.370Z,32.96
2023-03-06T11:56:58.631Z,32.51
2023-03-06T11:59:28.312Z,32.40
2023-03-06T12:02:21.777Z,32.43
2023-03-06T12:05:13.015Z,32.50
2023-03-06T12:08:10.347Z,32.49
2023-03-06T12:11:02.188Z,32.41
2023-03-06T12:13:40.542Z,32.84
2023-03-06T12:16:25.891Z,32.32
2023-03-06T12:19:04.521Z,32.28
2023-03-06T12:21:34.219Z,32.54
2023-03-06T12:24:31.388Z,32.52
2023-03-06T12:27:03.144Z,32.63
2023-03-06T12:29:42.129Z,32.47
2023-03-06T12:32:23.677Z,32.95
2023-03-06T12:35:14.052Z,32.40
2023-03-06T12:37:46.622Z,32.46
2023-03-06T12:40:34.584Z,32.89
2023-03-06T12:43:22.195Z,32.60
2023-03-06T12:46:00.461Z,32.76
2023-03-06T12:48:35.955Z,32.50
2023-03-06T12:51:09.743Z,32.58
2023-03-06T12:53:42.069Z,32.79
2023-03-06T12:56:15.817Z,32.67
2023-03-06T12:58:55.785Z,32.50
2023-03-06T13:01:39.445Z,33.09
2023-03-06T13:04:36.500Z,33.12
2023-03-06T13:07:29.339Z,32.72
2023-03-06T13:10:11.186Z,33.18
2023-03-06T13:12:51.345Z,32.74
2023-03-06T13:15:39.151Z,33.29
2023-03-06T13:18:26.804Z,33.15
2023-03-06T13:21:00.967Z,32.98
2023-03-06T13:23:36.975Z,33.55
2023-03-06T13:26:12.243Z,33.00
2023-03-06T13:28:52.006Z,33.29
2023-03-06T13:31:35.235Z,33.14
2023-03-06T13:34:25.044Z,33.59
2023-03-06T13:36:54.774Z,33.33
2023-03-06T13:39:24.418Z,33.38
2023-03-06T13:42:01.960Z,33.33
2023-03-06T13:44:32.322Z,33.30
2023-03-06T13:47:21.930Z,33.69
2023-03-06T13:49:51.682Z,33.92
2023-03-06T13:52:45.062Z,33.91
2023-03-06T13:55:55.966Z,33.92
2023-03-06T13:59:14.162Z,33.46
2023-03-06T14:01:58.920Z,33.86
2023-03-06T14:04:56.017Z,34.00
2023-03-06T14:07:33.061Z,33.62
2023-03-06T14:10:11.470Z,34.11
2023-03-06T14:12:53.035Z,34.27
2023-03-06T14:15:32.502Z,34.25
2023-03-06T14:18:09.283Z,33.83
2023-03-06T14:20:41.626Z,34.24
2023-03-06T14:23:39.576Z,34.40
2023-03-06T14:26:21.427Z,34.29
2023-03-06T14:29:07.102Z,34.35
2023-03-06T14:31:42.850Z,34.42
2023-03-06T14:34:24.307Z,34.16
2023-03-06T14:36:56.965Z,34.18
2023-03-06T14:39:35.245Z,34.04
2023-03-06T14:42:18.307Z,34.41
2023-03-06T14:45:01.812Z,34.44
2023-03-06T14:47:37.986Z,34.52
2023-03-06T14:50:34.543Z,34.49
2023-03-06T14:53:30.785Z,34.63
2023-03-06T14:56:05.076Z,34.63
2023-03-06T14:58:44.534Z,34.39
2023-03-06T15:01:16.136Z,34.84
2023-03-06T15:03:50.361Z,34.52
2023-03-06T15:06:44.151Z,34.96
2023-03-06T15:09:18.864Z,34.74
2023-03-06T15:11:55.972Z,34.91
2023-03-06T15:14:50.593Z,35.22
2023-03-06T15:17:20.148Z,35.06
2023-03-06T15:19:58.746Z,34.70
2023-03-06T15:22:43.018Z,34.88
2023-03-06T15:25:29.435Z,35.10
2023-03-06T15:28:37.440Z,34.82
2023-03-06T15:31:17.780Z,35.21
2023-03-06T15:34:07.873Z,35.07
2023-03-06T15:36:43.806Z,36.00
2023-03-06T15:39:34.559Z,36.02
2023-03-06T15:42:15.923Z,35.80
2023-03-06T15:44:48.575Z,35.63
2023-03-06T15:47:18.573Z,35.39
2023-03-06T15:49:50.556Z,35.75
2023-03-06T15:52:21.841Z,35.53
2023-03-06T15:54:51.954Z,35.66
2023-03-06T15:57:32.746Z,35.43
2023-03-06T16:00:03.484Z,35.67
2023-03-06T16:02:33.361Z,36.01
2023-03-06T16:05:04.137Z,35.53
2023-03-06T16:07:33.822Z,35.74
2023-03-06T16:10:05.112Z,35.58
2023-03-06T16:12:36.142Z,35.50
2023-03-06T16:15:07.722Z,35.93
2023-03-06T16:17:37.316Z,35.71
2023-03-06T16:20:07.783Z,35.83
2023-03-06T16:22:37.380Z,35.61
2023-03-06T16:25:07.407Z,35.86
2023-03-06T16:27:37.269Z,36.05
2023-03-06T16:30:07.885Z,36.31
2023-03-06T16:32:37.609Z,36.29
2023-03-06T16:35:07.432Z,36.55
2023-03-06T16:37:36.974Z,36.16
2023-03-06T16:40:10.975Z,36.09
2023-03-06T16:42:40.590Z,36.15
2023-03-06T16:45:10.866Z,36.45
2023-03-06T16:47:40.670Z,36.20
2023-03-06T16:50:25.599Z,36.16
2023-03-06T16:52:56.924Z,36.23
2023-03-06T16:55:28.565Z,36.62
2023-03-06T16:57:59.323Z,36.40
2023-03-06T17:00:34.682Z,36.40
2023-03-06T17:03:04.987Z,36.60
2023-03-06T17:05:38.975Z,36.30
2023-03-06T17:08:08.624Z,36.59
2023-03-06T17:10:40.961Z,36.36
2023-03-06T17:13:12.210Z,36.21
2023-03-06T17:15:42.299Z,36.48
2023-03-06T17:18:11.939Z,36.39
2023-03-06T17:20:42.236Z,36.53
2023-03-06T17:23:12.008Z,36.85
2023-03-06T17:25:41.571Z,36.89
2023-03-06T17:28:12.278Z,37.12
2023-03-06T17:30:42.258Z,36.61
2023-03-06T17:33:11.863Z,36.94
2023-03-06T17:35:41.607Z,36.90
2023-03-06T17:38:11.173Z,37.00
2023-03-06T17:40:40.817Z,37.04
2023-03-06T17:43:10.499Z,36.75
2023-03-06T17:45:40.063Z,37.04
2023-03-06T17:48:09.782Z,36.57
2023-03-06T17:50:39.435Z,36.46
2023-03-06T17:53:09.052Z,36.58
2023-03-06T17:55:42.085Z,36.82
2023-03-06T17:58:12.449Z,36.46
2023-03-06T18:00:43.288Z,36.53
2023-03-06T18:03:12.954Z,36.97
2023-03-06T18:05:42.623Z,36.61
2023-03-06T18:08:12.341Z,36.46
2023-03-06T18:10:43.738Z,36.70
2023-03-06T18:13:13.528Z,36.78
2023-03-06T18:15:45.605Z,36.73
2023-03-06T18:18:15.801Z,36.80
2023-03-06T18:20:47.219Z,36.94
2023-03-06T18:23:20.051Z,37.18
2023-03-06T18:25:51.843Z,36.67
2023-03-06T18:28:21.709Z,36.77
2023-03-06T18:30:53.366Z,36.59
2023-03-06T18:33:25.281Z,36.57
2023-03-06T18:36:00.041Z,36.53
2023-03-06T18:38:32.029Z,36.81
2023-03-06T18:41:02.834Z,36.94
2023-03-06T18:43:36.122Z,36.62
2023-03-06T18:46:05.695Z,36.98
2023-03-06T18:48:36.658Z,36.71
2023-03-06T18:51:13.252Z,36.88
2023-03-06T18:53:45.944Z,36.66
2023-03-06T18:56:22.544Z,37.18
2023-03-06T18:58:53.219Z,36.99
2023-03-06T19:01:24.825Z,36.93
2023-03-06T19:03:54.996Z,36.58
2023-03-06T19:06:27.571Z,36.96
2023-03-06T19:09:04.059Z,36.92
2023-03-06T19:11:37.208Z,36.70
2023-03-06T19:14:09.631Z,36.40
2023-03-06T19:16:42.763Z,36.89
2023-03-06T19:19:14.118Z,36.74
2023-03-06T19:21:44.842Z,36.88
2023-03-06T19:24:15.687Z,37.10
2023-03-06T19:26:45.973Z,36.88
2023-03-06T19:29:17.194Z,36.71
2023-03-06T19:31:48.211Z,36.47
2023-03-06T19:34:19.742Z,36.65
2023-03-06T19:36:52.789Z,36.83
2023-03-06T19:39:22.780Z,36.58
2023-03-06T19:41:52.680Z,36.54
2023-03-06T19:44:26.431Z,36.96
2023-03-06T19:47:01.540Z,37.14
2023-03-06T19:49:32.212Z,36.68
2023-03-06T19:52:01.935Z,37.15
2023-03-06T19:54:32.741Z,37.05
2023-03-06T19:57:04.406Z,36.71
2023-03-06T19:59:34.688Z,36.64
2023-03-06T20:02:10.935Z,36.81
2023-03-06T20:04:43.716Z,37.13
2023-03-06T20:07:14.381Z,37.07
2023-03-06T20:09:46.285Z,36.98
2023-03-06T20:12:19.626Z,36.95
2023-03-06T20:14:49.896Z,37.37
2023-03-06T20:17:21.165Z,37.18
2023-03-06T20:19:53.034Z,36.78
2023-03-06T20:22:26.268Z,37.54
2023-03-06T20:25:00.764Z,38.24
2023-03-06T20:27:31.870Z,38.02
2023-03-06T20:30:02.132Z,38.30
2023-03-06T20:32:35.709Z,39.29
2023-03-06T20:35:07.361Z,40.21
2023-03-06T20:37:39.667Z,40.09
2023-03-06T20:40:10.549Z,40.34
2023-03-06T20:42:41.103Z,40.05
2023-03-06T20:45:22.858Z,40.07
2023-03-06T20:47:53.034Z,40.24
2023-03-06T20:50:23.854Z,39.81
2023-03-06T20:53:00.519Z,39.85
2023-03-06T20:55:31.804Z,40.37
2023-03-06T20:58:02.775Z,39.85
2023-03-06T21:00:33.308Z,40.01
2023-03-06T21:03:05.841Z,39.67
2023-03-06T21:05:36.253Z,39.65
2023-03-06T21:08:06.029Z,39.71
2023-03-06T21:10:35.821Z,39.91
2023-03-06T21:13:05.395Z,39.89
2023-03-06T21:15:35.012Z,39.65
2023-03-06T21:18:06.726Z,40.05
2023-03-06T21:20:39.561Z,39.88
2023-03-06T21:23:10.036Z,39.79
2023-03-06T21:25:48.110Z,39.72
2023-03-06T21:28:18.194Z,39.58
2023-03-06T21:30:49.647Z,39.94
2023-03-06T21:33:19.356Z,39.65
2023-03-06T21:35:49.936Z,39.55
2023-03-06T21:38:22.495Z,39.37
2023-03-06T21:40:52.209Z,39.66
2023-03-06T21:43:22.315Z,39.35
2023-03-06T21:45:54.231Z,39.35
2023-03-06T21:48:23.867Z,39.48
2023-03-06T21:50:53.454Z,39.60
2023-03-06T21:53:23.058Z,39.43
2023-03-06T21:55:56.338Z,38.99
2023-03-06T21:58:25.385Z,39.66
2023-03-06T22:00:55.899Z,39.46
2023-03-06T22:03:26.278Z,39.11
2023-03-06T22:05:56.100Z,38.98
2023-03-06T22:08:29.669Z,39.17
2023-03-06T22:10:59.574Z,39.01
2023-03-06T22:13:29.780Z,39.26
2023-03-06T22:16:00.788Z,39.10
2023-03-06T22:18:30.562Z,38.94
2023-03-06T22:21:00.818Z,38.93
2023-03-06T22:23:30.464Z,39.06
2023-03-06T22:26:05.219Z,38.94
2023-03-06T22:28:35.582Z,38.71
2023-03-06T22:31:13.240Z,38.59
2023-03-06T22:33:45.300Z,38.57
2023-03-06T22:36:17.896Z,38.65
2023-03-06T22:38:50.293Z,38.58
2023-03-06T22:41:21.948Z,39.07
2023-03-06T22:43:51.783Z,38.56
2023-03-06T22:46:21.407Z,38.56
2023-03-06T22:48:51.171Z,39.00
2023-03-06T22:51:22.824Z,38.43
2023-03-06T22:53:57.221Z,38.42
2023-03-06T22:56:27.408Z,38.71
2023-03-06T22:58:57.184Z,38.48
2023-03-06T23:01:30.601Z,38.14
2023-03-06T23:04:03.098Z,38.26
2023-03-06T23:06:38.993Z,38.25
2023-03-06T23:09:16.310Z,38.18
2023-03-06T23:11:46.385Z,38.50
2023-03-06T23:14:18.891Z,38.19
2023-03-06T23:16:48.908Z,38.27
2023-03-06T23:19:18.867Z,38.16
2023-03-06T23:21:48.511Z,38.21
2023-03-06T23:24:19.938Z,37.69
2023-03-06T23:26:49.563Z,38.08
2023-03-06T23:29:19.183Z,38.10
2023-03-06T23:31:50.285Z,38.16
2023-03-06T23:34:21.340Z,37.68
2023-03-06T23:36:51.094Z,37.71
2023-03-06T23:39:20.654Z,37.44
2023-03-06T23:41:50.211Z,37.81
2023-03-06T23:44:20.276Z,37.50
2023-03-06T23:46:49.857Z,37.93
2023-03-06T23:49:22.042Z,37.79
2023-03-06T23:51:51.924Z,37.69
2023-03-06T23:54:22.079Z,37.10
2023-03-06T23:56:51.803Z,37.56
2023-03-06T23:59:24.579Z,37.60
